Time;durP1;ratioP1;P1;durP2;ratioP2;P2;SDS_P1;SDS_P2;PMS_P1;PMS_P2;Temp;Humidity;BMP_temperature;BMP_pressure;BME280_temperature;BME280_humidity;BME280_pressure;Samples;Min_cycle;Max_cycle;Signal;HPM_P1;HPM_P2
2022/10/05 00:00:14;;;;;;;0.30;0.30;;;;;;;;;;7375916;19;20169;-70
2022/10/05 00:02:39;;;;;;;1.33;0.57;;;;;;;;;;7375405;19;20151;-70
2022/10/05 00:05:16;;;;;;;0.30;0.30;;;;;;;;;;7375389;19;20735;-70
2022/10/05 00:07:41;;;;;;;0.53;0.53;;;;;;;;;;7378390;19;20121;-70
2022/10/05 00:10:13;;;;;;;0.30;0.30;;;;;;;;;;7377830;19;20100;-71
2022/10/05 00:12:38;;;;;;;0.40;0.40;;;;;;;;;;7378284;19;20110;-70
2022/10/05 00:15:10;;;;;;;0.30;0.30;;;;;;;;;;7372005;19;20124;-70
2022/10/05 00:17:35;;;;;;;0.40;0.40;;;;;;;;;;7378294;19;20583;-70
2022/10/05 00:20:13;;;;;;;0.40;0.40;;;;;;;;;;7377431;19;20117;-70
2022/10/05 00:22:38;;;;;;;0.30;0.30;;;;;;;;;;7377576;19;20105;-70
2022/10/05 00:25:12;;;;;;;0.70;0.70;;;;;;;;;;7387322;19;20126;-70
2022/10/05 00:27:37;;;;;;;0.30;0.30;;;;;;;;;;7385414;19;20101;-70
2022/10/05 00:30:18;;;;;;;0.50;0.50;;;;;;;;;;7379233;19;20097;-70
2022/10/05 00:32:43;;;;;;;0.23;0.23;;;;;;;;;;7384379;19;20526;-70
2022/10/05 00:35:09;;;;;;;0.27;0.27;;;;;;;;;;7380640;19;20117;-70
2022/10/05 00:37:35;;;;;;;0.30;0.30;;;;;;;;;;7385150;19;20227;-70
2022/10/05 00:40:01;;;;;;;0.40;0.40;;;;;;;;;;7384045;19;20764;-69
2022/10/05 00:42:35;;;;;;;0.30;0.30;;;;;;;;;;7388895;19;20474;-70
2022/10/05 00:45:04;;;;;;;0.30;0.30;;;;;;;;;;7380291;19;20152;-70
2022/10/05 00:47:41;;;;;;;0.40;0.40;;;;;;;;;;7388298;19;20176;-70
2022/10/05 00:50:16;;;;;;;0.30;0.30;;;;;;;;;;7378163;19;20144;-70
2022/10/05 00:52:45;;;;;;;0.30;0.30;;;;;;;;;;7385157;19;20104;-70
2022/10/05 00:55:32;;;;;;;0.20;0.20;;;;;;;;;;7381110;19;20121;-69
2022/10/05 00:58:34;;;;;;;0.33;0.33;;;;;;;;;;7387438;19;20101;-70
2022/10/05 01:01:08;;;;;;;0.53;0.53;;;;;;;;;;7386566;19;20101;-69
2022/10/05 01:03:40;;;;;;;0.30;0.30;;;;;;;;;;7379050;19;20101;-70
2022/10/05 01:06:32;;;;;;;0.30;0.30;;;;;;;;;;7384872;19;20109;-70
2022/10/05 01:09:16;;;;;;;1.27;0.60;;;;;;;;;;7384476;19;20647;-70
2022/10/05 01:12:05;;;;;;;0.30;0.30;;;;;;;;;;7379343;19;20109;-69
2022/10/05 01:14:39;;;;;;;0.30;0.30;;;;;;;;;;7375623;19;20133;-69
2022/10/05 01:17:12;;;;;;;0.30;0.30;;;;;;;;;;7384076;19;20120;-70
2022/10/05 01:19:54;;;;;;;0.40;0.40;;;;;;;;;;7380910;19;20144;-70
2022/10/05 01:22:35;;;;;;;0.70;0.67;;;;;;;;;;7383326;19;20125;-70
2022/10/05 01:25:17;;;;;;;0.30;0.30;;;;;;;;;;7384040;19;20150;-70
2022/10/05 01:27:56;;;;;;;0.30;0.30;;;;;;;;;;7388800;19;20176;-69
2022/10/05 01:30:22;;;;;;;0.30;0.30;;;;;;;;;;7387217;19;20129;-70
2022/10/05 01:32:53;;;;;;;0.40;0.40;;;;;;;;;;7388215;19;20127;-70
2022/10/05 01:39:00;;;;;;;0.30;0.30;;;;;;;;;;7386708;19;20112;-70
2022/10/05 01:45:21;;;;;;;0.20;0.20;;;;;;;;;;7385454;19;20620;-70
2022/10/05 01:47:49;;;;;;;0.20;0.20;;;;;;;;;;7385977;19;20519;-70
2022/10/05 01:50:59;;;;;;;0.30;0.30;;;;;;;;;;7388808;19;20117;-69
2022/10/05 01:53:36;;;;;;;0.30;0.30;;;;;;;;;;7385209;19;20121;-69
2022/10/05 01:56:20;;;;;;;0.30;0.30;;;;;;;;;;7385915;19;20120;-69
2022/10/05 01:59:05;;;;;;;0.37;0.37;;;;;;;;;;7388393;19;20131;-69
2022/10/05 02:01:57;;;;;;;0.37;0.37;;;;;;;;;;7388228;19;20557;-69
2022/10/05 02:04:29;;;;;;;0.30;0.30;;;;;;;;;;7387612;19;20129;-69
2022/10/05 02:06:55;;;;;;;0.30;0.30;;;;;;;;;;7390191;19;20172;-69
2022/10/05 02:09:33;;;;;;;0.20;0.20;;;;;;;;;;7389176;19;20133;-69
2022/10/05 02:12:03;;;;;;;0.77;0.77;;;;;;;;;;7389629;19;20565;-70
2022/10/05 02:14:33;;;;;;;0.20;0.20;;;;;;;;;;7388874;19;20128;-69
2022/10/05 02:17:01;;;;;;;0.40;0.40;;;;;;;;;;7389081;19;20117;-69
2022/10/05 02:19:31;;;;;;;0.30;0.30;;;;;;;;;;7388884;19;20579;-69
2022/10/05 02:22:06;;;;;;;0.20;0.20;;;;;;;;;;7388393;19;20117;-69
2022/10/05 02:24:39;;;;;;;0.23;0.23;;;;;;;;;;7386750;19;20160;-69
2022/10/05 02:27:06;;;;;;;0.30;0.30;;;;;;;;;;7389435;19;20110;-70
2022/10/05 02:29:32;;;;;;;0.40;0.40;;;;;;;;;;7388929;19;20140;-69
2022/10/05 02:32:09;;;;;;;3.37;0.73;;;;;;;;;;7388107;19;20588;-71
2022/10/05 02:34:38;;;;;;;0.30;0.30;;;;;;;;;;7387784;19;20121;-69
2022/10/05 02:37:35;;;;;;;0.43;0.43;;;;;;;;;;7388604;19;20124;-69
2022/10/05 02:40:00;;;;;;;0.30;0.30;;;;;;;;;;7389320;19;20474;-69
2022/10/05 02:42:41;;;;;;;0.30;0.30;;;;;;;;;;7390830;19;20146;-69
2022/10/05 02:45:12;;;;;;;0.50;0.50;;;;;;;;;;7386743;19;20152;-69
2022/10/05 02:47:51;;;;;;;0.40;0.40;;;;;;;;;;7389722;19;20106;-69
2022/10/05 02:50:38;;;;;;;0.30;0.30;;;;;;;;;;7386555;19;20109;-69
2022/10/05 02:53:22;;;;;;;0.23;0.23;;;;;;;;;;7389841;19;20110;-69
2022/10/05 02:55:53;;;;;;;0.27;0.27;;;;;;;;;;7387425;19;20129;-69
2022/10/05 02:58:22;;;;;;;0.30;0.30;;;;;;;;;;7390085;19;20187;-69
2022/10/05 03:00:59;;;;;;;1.23;0.60;;;;;;;;;;7386544;19;20124;-69
2022/10/05 03:03:34;;;;;;;0.30;0.30;;;;;;;;;;7387728;19;20642;-70
2022/10/05 03:06:02;;;;;;;0.40;0.40;;;;;;;;;;7387146;19;20148;-70
2022/10/05 03:08:36;;;;;;;0.30;0.30;;;;;;;;;;7388145;19;20527;-69
2022/10/05 03:11:22;;;;;;;0.40;0.40;;;;;;;;;;7386191;19;20115;-69
2022/10/05 03:14:08;;;;;;;0.30;0.30;;;;;;;;;;7387402;19;20132;-70
2022/10/05 03:16:36;;;;;;;0.30;0.30;;;;;;;;;;7387277;19;20150;-69
2022/10/05 03:19:17;;;;;;;0.30;0.30;;;;;;;;;;7389194;19;20187;-69
2022/10/05 03:22:33;;;;;;;0.40;0.40;;;;;;;;;;7385711;19;20122;-69
2022/10/05 03:25:10;;;;;;;0.43;0.43;;;;;;;;;;7385730;19;20680;-70
2022/10/05 03:27:42;;;;;;;0.30;0.30;;;;;;;;;;7376600;19;20636;-69
2022/10/05 03:30:17;;;;;;;0.20;0.20;;;;;;;;;;7385427;19;20596;-69
2022/10/05 03:32:57;;;;;;;0.30;0.30;;;;;;;;;;7385925;19;20115;-69
2022/10/05 03:35:30;;;;;;;0.40;0.40;;;;;;;;;;7385336;19;20129;-69
2022/10/05 03:38:11;;;;;;;1.83;1.10;;;;;;;;;;7385337;19;20152;-69
2022/10/05 03:41:02;;;;;;;0.30;0.30;;;;;;;;;;7383674;19;20133;-69
2022/10/05 03:43:49;;;;;;;0.37;0.37;;;;;;;;;;7384072;19;20116;-69
2022/10/05 03:46:19;;;;;;;0.47;0.47;;;;;;;;;;7385574;19;20151;-69
2022/10/05 03:49:00;;;;;;;0.50;0.50;;;;;;;;;;7385584;19;20112;-69
2022/10/05 03:51:38;;;;;;;0.30;0.30;;;;;;;;;;7383603;19;20115;-69
2022/10/05 03:54:16;;;;;;;0.30;0.30;;;;;;;;;;7384592;19;20131;-69
2022/10/05 03:56:56;;;;;;;0.40;0.40;;;;;;;;;;7386153;19;20200;-70
2022/10/05 03:59:28;;;;;;;0.30;0.30;;;;;;;;;;7385217;19;20117;-70
2022/10/05 15:58:30;;;;;;;0.30;0.30;;;;;;;;;;7380731;19;20204;-71
2022/10/05 16:01:07;;;;;;;0.30;0.30;;;;;;;;;;7378477;19;20536;-71
2022/10/05 16:03:44;;;;;;;0.30;0.30;;;;;;;;;;7382506;19;20459;-72
2022/10/05 16:09:35;;;;;;;0.30;0.30;;;;;;;;;;7381167;19;20115;-71
2022/10/05 16:12:34;;;;;;;0.30;0.30;;;;;;;;;;7381423;19;20593;-71
2022/10/05 16:15:05;;;;;;;0.30;0.30;;;;;;;;;;7376804;19;20503;-73
2022/10/05 16:17:43;;;;;;;0.30;0.30;;;;;;;;;;7383220;19;20124;-71
2022/10/05 16:20:33;;;;;;;0.50;0.50;;;;;;;;;;7378470;19;20113;-71
2022/10/05 16:23:20;;;;;;;0.20;0.20;;;;;;;;;;7381467;19;20127;-71
2022/10/05 16:26:40;;;;;;;0.30;0.30;;;;;;;;;;7378624;19;20148;-73
2022/10/05 16:29:11;;;;;;;0.30;0.30;;;;;;;;;;7373686;19;20540;-71
2022/10/05 16:31:57;;;;;;;0.30;0.30;;;;;;;;;;7374028;19;20108;-72
2022/10/05 16:34:48;;;;;;;0.43;0.43;;;;;;;;;;7379952;19;20155;-71
2022/10/05 16:37:32;;;;;;;0.40;0.40;;;;;;;;;;7382827;19;20113;-72
2022/10/05 16:39:59;;;;;;;0.30;0.30;;;;;;;;;;7382299;19;20510;-73
2022/10/05 16:42:41;;;;;;;0.30;0.30;;;;;;;;;;7380642;19;20110;-72
2022/10/05 16:45:41;;;;;;;0.30;0.30;;;;;;;;;;7379581;19;20200;-74
2022/10/05 16:48:29;;;;;;;0.30;0.30;;;;;;;;;;7377750;19;20306;-71
2022/10/05 16:51:13;;;;;;;0.30;0.30;;;;;;;;;;7375939;19;20166;-72
2022/10/05 16:53:43;;;;;;;0.30;0.30;;;;;;;;;;7380714;19;20117;-72
2022/10/05 16:56:12;;;;;;;0.30;0.30;;;;;;;;;;7379382;19;20474;-72
2022/10/05 16:59:05;;;;;;;0.30;0.30;;;;;;;;;;7377936;19;20121;-71
2022/10/05 17:01:38;;;;;;;0.30;0.30;;;;;;;;;;7378756;19;20109;-71
2022/10/05 17:04:12;;;;;;;0.30;0.30;;;;;;;;;;7374373;19;20625;-72
2022/10/05 17:07:05;;;;;;;0.30;0.30;;;;;;;;;;7383734;19;20113;-71
2022/10/05 17:09:58;;;;;;;0.40;0.40;;;;;;;;;;7379438;19;20109;-72
2022/10/05 17:12:26;;;;;;;1.05;0.40;;;;;;;;;;7386341;19;20593;-73
2022/10/05 17:15:18;;;;;;;0.30;0.30;;;;;;;;;;7378704;19;20588;-72
2022/10/05 17:17:59;;;;;;;0.30;0.30;;;;;;;;;;7378092;19;20117;-73
2022/10/05 17:20:39;;;;;;;0.30;0.30;;;;;;;;;;7385338;19;20113;-73
2022/10/05 17:23:31;;;;;;;0.30;0.30;;;;;;;;;;7380525;19;20471;-72
2022/10/05 17:26:34;;;;;;;0.30;0.30;;;;;;;;;;7379426;19;20129;-73
2022/10/05 17:29:26;;;;;;;0.30;0.30;;;;;;;;;;7378010;19;20112;-73
2022/10/05 17:32:05;;;;;;;0.30;0.30;;;;;;;;;;7380184;19;20112;-73
2022/10/05 17:34:33;;;;;;;0.30;0.30;;;;;;;;;;7382932;19;20129;-72
2022/10/05 17:37:37;;;;;;;0.30;0.30;;;;;;;;;;7382883;19;20141;-72
2022/10/05 17:40:35;;;;;;;0.30;0.30;;;;;;;;;;7388313;19;20116;-72
2022/10/05 17:43:15;;;;;;;0.30;0.30;;;;;;;;;;7387072;19;20532;-73
2022/10/05 17:45:40;;;;;;;0.30;0.30;;;;;;;;;;7383688;19;20160;-72
2022/10/05 17:48:46;;;;;;;0.30;0.30;;;;;;;;;;7388083;19;20616;-72
2022/10/05 17:57:04;;;;;;;0.35;0.35;;;;;;;;;;7386350;19;20115;-72
2022/10/05 17:59:43;;;;;;;0.30;0.30;;;;;;;;;;7387585;19;20472;-72
2022/10/05 18:02:20;;;;;;;0.30;0.30;;;;;;;;;;7387890;19;20113;-72
2022/10/05 18:04:59;;;;;;;0.30;0.30;;;;;;;;;;7386772;19;20189;-73
2022/10/05 18:07:25;;;;;;;0.30;0.30;;;;;;;;;;7380069;19;20128;-73
2022/10/05 18:10:03;;;;;;;0.70;0.70;;;;;;;;;;7382789;19;20582;-72
2022/10/05 18:12:46;;;;;;;0.30;0.30;;;;;;;;;;7387774;19;20109;-72
2022/10/05 18:15:21;;;;;;;0.30;0.30;;;;;;;;;;7384708;19;20630;-73
2022/10/05 18:18:37;;;;;;;0.30;0.30;;;;;;;;;;7379428;19;20131;-72
2022/10/05 18:21:19;;;;;;;0.28;0.28;;;;;;;;;;7384495;19;20566;-72
2022/10/05 18:23:50;;;;;;;0.30;0.30;;;;;;;;;;7385795;19;20463;-72
2022/10/05 18:26:43;;;;;;;0.40;0.40;;;;;;;;;;7381173;19;20184;-73
2022/10/05 18:32:28;;;;;;;0.30;0.30;;;;;;;;;;7381702;19;20120;-72
2022/10/05 18:35:15;;;;;;;0.30;0.30;;;;;;;;;;7382209;19;20439;-72
2022/10/05 18:38:02;;;;;;;0.50;0.50;;;;;;;;;;7381226;19;20567;-73
2022/10/05 18:40:46;;;;;;;0.30;0.30;;;;;;;;;;7380341;19;20120;-73
2022/10/05 18:43:27;;;;;;;0.30;0.30;;;;;;;;;;7379921;19;20150;-72
2022/10/05 18:46:18;;;;;;;0.35;0.35;;;;;;;;;;7382806;19;20101;-73
2022/10/05 18:48:49;;;;;;;0.30;0.30;;;;;;;;;;7377665;19;20409;-73
2022/10/05 18:51:40;;;;;;;0.50;0.50;;;;;;;;;;7378235;19;20638;-72
2022/10/05 18:54:31;;;;;;;0.30;0.30;;;;;;;;;;7378045;19;20134;-73
2022/10/05 18:56:58;;;;;;;0.30;0.30;;;;;;;;;;7381113;19;20471;-73
2022/10/05 18:59:26;;;;;;;0.40;0.40;;;;;;;;;;7380720;19;20130;-73
2022/10/05 19:02:05;;;;;;;0.30;0.30;;;;;;;;;;7379923;19;20110;-73
2022/10/05 19:04:52;;;;;;;0.30;0.30;;;;;;;;;;7381551;19;20622;-72
2022/10/05 19:07:32;;;;;;;0.30;0.30;;;;;;;;;;7383119;19;20116;-73
2022/10/05 19:10:24;;;;;;;0.30;0.30;;;;;;;;;;7372799;19;20140;-72
2022/10/05 19:13:00;;;;;;;0.30;0.30;;;;;;;;;;7371565;19;20121;-72
2022/10/05 19:15:45;;;;;;;0.30;0.30;;;;;;;;;;7382336;19;20184;-72
2022/10/05 19:18:13;;;;;;;0.30;0.30;;;;;;;;;;7380275;19;20190;-72
2022/10/05 19:21:13;;;;;;;0.30;0.30;;;;;;;;;;7381308;19;20136;-72
2022/10/05 19:23:55;;;;;;;0.30;0.30;;;;;;;;;;7382059;19;20113;-72
2022/10/05 19:26:50;;;;;;;0.22;0.22;;;;;;;;;;7382664;19;20101;-72
2022/10/05 19:29:31;;;;;;;0.30;0.30;;;;;;;;;;7377161;19;20136;-73
2022/10/05 19:32:02;;;;;;;0.30;0.30;;;;;;;;;;7381575;19;20579;-72
2022/10/05 19:34:41;;;;;;;0.30;0.30;;;;;;;;;;7381286;19;20128;-72
2022/10/05 19:37:14;;;;;;;0.30;0.30;;;;;;;;;;7380199;19;20105;-73
2022/10/05 19:39:47;;;;;;;0.30;0.30;;;;;;;;;;7376784;19;20158;-73
2022/10/05 19:42:47;;;;;;;0.30;0.30;;;;;;;;;;7377328;19;20117;-73
2022/10/05 19:45:30;;;;;;;0.35;0.35;;;;;;;;;;7381532;19;20125;-73
2022/10/05 19:48:12;;;;;;;0.30;0.30;;;;;;;;;;7382460;19;20566;-73
2022/10/05 19:50:39;;;;;;;0.30;0.30;;;;;;;;;;7370535;19;20968;-73
2022/10/05 19:53:15;;;;;;;0.30;0.30;;;;;;;;;;7371200;19;20109;-72
2022/10/05 19:55:43;;;;;;;0.30;0.30;;;;;;;;;;7368401;19;20156;-72
2022/10/05 19:58:17;;;;;;;0.30;0.30;;;;;;;;;;7371560;19;20117;-72
2022/10/05 20:00:44;;;;;;;0.30;0.30;;;;;;;;;;7371186;19;20160;-73
2022/10/05 20:03:17;;;;;;;0.20;0.20;;;;;;;;;;7374876;19;20105;-72
2022/10/05 20:05:43;;;;;;;0.30;0.30;;;;;;;;;;7376898;19;20121;-72
2022/10/05 20:08:18;;;;;;;0.20;0.20;;;;;;;;;;7379150;19;20104;-72
2022/10/05 20:10:45;;;;;;;0.30;0.30;;;;;;;;;;7380729;19;20108;-73
2022/10/05 20:13:19;;;;;;;0.30;0.30;;;;;;;;;;7376661;19;20125;-72
2022/10/05 20:21:50;;;;;;;0.30;0.30;;;;;;;;;;7371452;19;20120;-72
2022/10/05 20:24:24;;;;;;;0.30;0.30;;;;;;;;;;7371085;19;20150;-72
2022/10/05 20:27:06;;;;;;;0.30;0.30;;;;;;;;;;7375782;19;20653;-72
2022/10/05 20:29:37;;;;;;;0.20;0.20;;;;;;;;;;7371256;19;20121;-73
2022/10/05 20:32:11;;;;;;;0.52;0.52;;;;;;;;;;7374069;19;20696;-72
2022/10/05 20:34:45;;;;;;;0.30;0.30;;;;;;;;;;7370008;19;20189;-73
2022/10/05 20:37:12;;;;;;;0.30;0.30;;;;;;;;;;7367732;19;20651;-73
2022/10/05 20:39:38;;;;;;;0.30;0.30;;;;;;;;;;7373862;19;20113;-72
2022/10/05 20:42:04;;;;;;;0.30;0.30;;;;;;;;;;7386506;19;20607;-72
2022/10/05 20:44:30;;;;;;;0.20;0.20;;;;;;;;;;7382760;19;20894;-73
2022/10/05 20:46:57;;;;;;;0.30;0.30;;;;;;;;;;7387800;19;20101;-73
2022/10/05 20:49:25;;;;;;;0.30;0.30;;;;;;;;;;7378425;19;20571;-73
2022/10/05 20:51:50;;;;;;;0.20;0.20;;;;;;;;;;7386560;19;20137;-73
2022/10/05 20:54:18;;;;;;;0.30;0.30;;;;;;;;;;7383391;19;20121;-73
2022/10/05 20:56:47;;;;;;;0.28;0.28;;;;;;;;;;7381895;19;20101;-72
2022/10/05 20:59:13;;;;;;;0.40;0.40;;;;;;;;;;7384021;19;20117;-73
2022/10/05 21:01:44;;;;;;;0.52;0.52;;;;;;;;;;7385971;19;20132;-73
2022/10/05 21:04:09;;;;;;;0.30;0.30;;;;;;;;;;7381853;19;20192;-73
2022/10/05 21:06:34;;;;;;;0.20;0.20;;;;;;;;;;7386384;19;20142;-72
2022/10/05 21:09:00;;;;;;;0.30;0.30;;;;;;;;;;7383390;19;20168;-74
2022/10/05 21:11:27;;;;;;;0.30;0.30;;;;;;;;;;7382559;19;20909;-73
2022/10/05 21:13:53;;;;;;;0.30;0.30;;;;;;;;;;7385932;19;20149;-72
2022/10/05 21:16:19;;;;;;;0.30;0.30;;;;;;;;;;7388841;19;20629;-72
2022/10/05 21:18:46;;;;;;;0.30;0.30;;;;;;;;;;7383635;19;20105;-73
2022/10/05 21:21:13;;;;;;;0.30;0.30;;;;;;;;;;7384805;19;20886;-73
2022/10/05 21:23:39;;;;;;;0.40;0.40;;;;;;;;;;7375509;19;20123;-73
2022/10/05 21:26:06;;;;;;;0.23;0.23;;;;;;;;;;7380858;19;20105;-72
2022/10/05 21:28:32;;;;;;;0.30;0.30;;;;;;;;;;7376581;19;20126;-72
2022/10/05 21:30:58;;;;;;;0.30;0.30;;;;;;;;;;7378127;19;20928;-73
2022/10/05 21:33:23;;;;;;;0.20;0.20;;;;;;;;;;7372254;19;20613;-72
2022/10/05 21:35:48;;;;;;;0.30;0.30;;;;;;;;;;7382421;19;20117;-73
2022/10/05 21:38:13;;;;;;;0.30;0.30;;;;;;;;;;7376225;19;20786;-73
2022/10/05 21:40:39;;;;;;;0.30;0.30;;;;;;;;;;7380627;19;20113;-72
2022/10/05 21:43:04;;;;;;;0.30;0.30;;;;;;;;;;7383016;19;20097;-72
2022/10/05 21:45:29;;;;;;;0.30;0.30;;;;;;;;;;7382042;19;20722;-72
2022/10/05 21:47:56;;;;;;;0.30;0.30;;;;;;;;;;7385346;19;20581;-72
2022/10/05 21:50:21;;;;;;;0.30;0.30;;;;;;;;;;7377107;19;20121;-72
2022/10/05 21:52:48;;;;;;;0.20;0.20;;;;;;;;;;7377471;19;20120;-72
2022/10/05 21:55:14;;;;;;;0.30;0.30;;;;;;;;;;7371214;19;20128;-72
2022/10/05 21:57:40;;;;;;;0.50;0.50;;;;;;;;;;7386028;19;20098;-71
2022/10/05 22:00:07;;;;;;;0.30;0.30;;;;;;;;;;7379685;19;20123;-72
2022/10/05 22:02:32;;;;;;;0.20;0.20;;;;;;;;;;7386745;19;20109;-72
2022/10/05 22:04:57;;;;;;;0.30;0.30;;;;;;;;;;7384954;19;20169;-72
2022/10/05 22:07:23;;;;;;;0.30;0.30;;;;;;;;;;7386155;19;20101;-73
2022/10/05 22:09:49;;;;;;;0.30;0.30;;;;;;;;;;7381762;19;20188;-72
2022/10/05 22:12:15;;;;;;;0.30;0.30;;;;;;;;;;7385826;19;20109;-72
2022/10/05 22:14:40;;;;;;;0.20;0.20;;;;;;;;;;7386855;19;20455;-72
2022/10/05 22:17:13;;;;;;;0.30;0.30;;;;;;;;;;7385885;19;20101;-72
2022/10/05 22:19:38;;;;;;;0.22;0.22;;;;;;;;;;7382877;19;20172;-72
2022/10/05 22:22:03;;;;;;;0.30;0.30;;;;;;;;;;7382813;19;20130;-73
2022/10/05 22:24:28;;;;;;;0.30;0.30;;;;;;;;;;7375992;19;20240;-72
2022/10/05 22:26:54;;;;;;;0.20;0.20;;;;;;;;;;7385764;19;20567;-72
2022/10/05 22:29:19;;;;;;;0.30;0.30;;;;;;;;;;7381953;19;20112;-72
2022/10/05 22:31:47;;;;;;;0.30;0.30;;;;;;;;;;7384227;19;20837;-72
2022/10/05 22:34:13;;;;;;;0.30;0.30;;;;;;;;;;7386159;19;20125;-73
2022/10/05 22:36:40;;;;;;;0.38;0.38;;;;;;;;;;7386700;19;20102;-72
2022/10/05 22:39:06;;;;;;;0.30;0.30;;;;;;;;;;7387433;19;20113;-72
2022/10/05 22:41:31;;;;;;;0.30;0.30;;;;;;;;;;7384223;19;20120;-72
2022/10/05 22:43:56;;;;;;;0.20;0.20;;;;;;;;;;7384852;19;20126;-72
2022/10/05 22:46:22;;;;;;;0.20;0.20;;;;;;;;;;7385622;19;20117;-71
2022/10/05 22:48:47;;;;;;;0.30;0.30;;;;;;;;;;7381001;19;20105;-72
2022/10/05 22:51:12;;;;;;;0.20;0.20;;;;;;;;;;7382848;19;20105;-72
2022/10/05 22:53:37;;;;;;;0.30;0.30;;;;;;;;;;7384933;19;20145;-72
2022/10/05 22:56:07;;;;;;;0.20;0.20;;;;;;;;;;7382203;19;20117;-72
2022/10/05 22:58:33;;;;;;;0.20;0.20;;;;;;;;;;7380245;19;20136;-72
2022/10/05 23:01:02;;;;;;;0.20;0.20;;;;;;;;;;7381606;19;20185;-73
2022/10/05 23:03:28;;;;;;;0.30;0.30;;;;;;;;;;7381860;19;20527;-72
2022/10/05 23:05:59;;;;;;;0.23;0.23;;;;;;;;;;7383305;19;20103;-71
2022/10/05 23:08:25;;;;;;;0.30;0.30;;;;;;;;;;7381777;19;20121;-72
2022/10/05 23:10:51;;;;;;;0.30;0.30;;;;;;;;;;7380061;19;20123;-72
2022/10/05 23:13:16;;;;;;;0.30;0.30;;;;;;;;;;7379292;19;20121;-72
2022/10/05 23:15:42;;;;;;;0.20;0.20;;;;;;;;;;7378031;19;20648;-72
2022/10/05 23:18:07;;;;;;;0.20;0.20;;;;;;;;;;7383431;19;20117;-73
2022/10/05 23:20:32;;;;;;;0.30;0.30;;;;;;;;;;7381386;19;20133;-72
2022/10/05 23:22:58;;;;;;;0.30;0.30;;;;;;;;;;7375201;19;20124;-73
2022/10/05 23:25:24;;;;;;;0.30;0.30;;;;;;;;;;7377719;19;20124;-72
2022/10/05 23:27:50;;;;;;;0.20;0.20;;;;;;;;;;7382241;19;20117;-72
2022/10/05 23:30:15;;;;;;;0.20;0.20;;;;;;;;;;7377991;19;20129;-73
2022/10/05 23:32:43;;;;;;;0.30;0.30;;;;;;;;;;7383876;19;20117;-72
2022/10/05 23:35:10;;;;;;;0.20;0.20;;;;;;;;;;7376541;19;20128;-72
2022/10/05 23:37:40;;;;;;;0.30;0.30;;;;;;;;;;7379251;19;20121;-72
2022/10/05 23:40:07;;;;;;;0.30;0.30;;;;;;;;;;7377442;19;20522;-72
2022/10/05 23:42:32;;;;;;;0.30;0.30;;;;;;;;;;7378243;19;20124;-73
2022/10/05 23:44:57;;;;;;;0.30;0.30;;;;;;;;;;7378915;19;20593;-72
2022/10/05 23:47:23;;;;;;;0.30;0.30;;;;;;;;;;7380560;19;20120;-72
2022/10/05 23:49:48;;;;;;;0.30;0.30;;;;;;;;;;7379745;19;20154;-73
2022/10/05 23:52:20;;;;;;;0.30;0.30;;;;;;;;;;7381821;19;20105;-72
2022/10/05 23:54:45;;;;;;;0.30;0.30;;;;;;;;;;7380474;19;20124;-72
2022/10/05 23:57:15;;;;;;;0.30;0.30;;;;;;;;;;7381420;19;20109;-73
2022/10/05 23:59:41;;;;;;;0.30;0.30;;;;;;;;;;7377292;19;20202;-72
